createdAt,value
2018-08-30T00:02:13.083Z,54.70
2018-08-30T00:04:41.501Z,54.70
2018-08-30T00:07:10.179Z,54.60
2018-08-30T00:09:38.781Z,54.70
2018-08-30T00:12:08.082Z,54.70
2018-08-30T00:14:36.692Z,54.60
2018-08-30T00:17:05.142Z,54.60
2018-08-30T00:19:34.058Z,54.60
2018-08-30T00:22:03.085Z,54.60
2018-08-30T00:24:31.537Z,54.60
2018-08-30T00:26:59.962Z,54.60
2018-08-30T00:29:28.382Z,54.60
2018-08-30T00:31:56.850Z,54.40
2018-08-30T00:34:25.792Z,54.40
2018-08-30T00:36:54.327Z,54.40
2018-08-30T00:39:23.147Z,54.30
2018-08-30T00:41:51.697Z,54.30
2018-08-30T00:44:20.129Z,54.30
2018-08-30T00:46:48.644Z,54.30
2018-08-30T00:49:17.774Z,54.20
2018-08-30T00:51:46.187Z,54.20
2018-08-30T00:54:14.808Z,54.20
2018-08-30T00:56:43.221Z,54.10
2018-08-30T00:59:11.677Z,54.10
2018-08-30T01:01:40.162Z,54.10
2018-08-30T01:04:08.650Z,54.00
2018-08-30T01:06:37.193Z,54.10
2018-08-30T01:09:06.779Z,53.90
2018-08-30T01:11:36.046Z,54.00
2018-08-30T01:14:04.588Z,53.90
2018-08-30T01:16:33.322Z,54.00
2018-08-30T01:19:01.768Z,53.90
2018-08-30T01:21:30.191Z,54.00
2018-08-30T01:23:58.583Z,53.90
2018-08-30T01:26:27.014Z,53.90
2018-08-30T01:28:55.420Z,53.90
2018-08-30T01:31:24.685Z,53.80
2018-08-30T01:33:53.084Z,53.80
2018-08-30T01:36:21.507Z,53.80
2018-08-30T01:38:50.524Z,53.70
2018-08-30T01:41:18.953Z,53.80
2018-08-30T01:43:47.438Z,53.80
2018-08-30T01:46:16.458Z,53.80
2018-08-30T01:48:44.870Z,53.80
2018-08-30T01:51:13.237Z,53.70
2018-08-30T01:53:41.708Z,53.70
2018-08-30T01:56:10.335Z,53.70
2018-08-30T01:58:38.889Z,53.70
2018-08-30T02:01:07.313Z,53.70
2018-08-30T02:03:35.765Z,53.70
2018-08-30T02:06:04.306Z,53.70
2018-08-30T02:08:32.821Z,53.70
2018-08-30T02:11:01.306Z,53.70
2018-08-30T02:13:29.723Z,53.70
2018-08-30T02:15:58.188Z,53.70
2018-08-30T02:18:26.568Z,53.70
2018-08-30T02:20:55.327Z,53.70
2018-08-30T02:23:23.886Z,53.70
2018-08-30T02:25:52.944Z,53.70
2018-08-30T02:28:21.525Z,53.70
2018-08-30T02:30:50.021Z,53.70
2018-08-30T02:33:18.707Z,53.70
2018-08-30T02:35:47.232Z,53.70
2018-08-30T02:38:15.666Z,53.60
2018-08-30T02:40:44.933Z,53.60
2018-08-30T02:43:13.579Z,53.60
2018-08-30T02:45:42.010Z,53.60
2018-08-30T02:48:10.553Z,53.60
2018-08-30T02:50:39.115Z,53.50
2018-08-30T02:53:07.685Z,53.50
2018-08-30T02:55:36.067Z,53.50
2018-08-30T02:58:04.768Z,53.50
2018-08-30T03:00:33.213Z,53.60
2018-08-30T03:03:01.703Z,53.50
2018-08-30T03:05:30.259Z,53.50
2018-08-30T03:07:58.876Z,53.40
2018-08-30T03:10:27.325Z,53.40
2018-08-30T03:12:55.874Z,53.50
2018-08-30T03:15:24.348Z,53.40
2018-08-30T03:17:52.760Z,53.40
2018-08-30T03:20:21.358Z,53.40
2018-08-30T03:22:49.785Z,53.40
2018-08-30T03:25:18.220Z,53.40
2018-08-30T03:27:46.779Z,53.30
2018-08-30T03:30:15.392Z,53.20
2018-08-30T03:32:44.043Z,53.20
2018-08-30T03:35:12.552Z,53.20
2018-08-30T03:37:41.661Z,53.10
2018-08-30T03:40:10.092Z,53.10
2018-08-30T03:42:38.597Z,53.00
2018-08-30T03:45:07.758Z,53.00
2018-08-30T03:47:36.984Z,52.90
2018-08-30T03:50:05.700Z,52.90
2018-08-30T03:52:34.297Z,52.80
2018-08-30T03:55:03.225Z,52.70
2018-08-30T03:57:31.768Z,52.60
2018-08-30T04:00:00.184Z,52.50
2018-08-30T04:02:28.780Z,52.50
2018-08-30T04:04:57.317Z,52.50
2018-08-30T04:07:25.892Z,52.40
2018-08-30T04:09:54.476Z,52.40
2018-08-30T04:12:23.102Z,52.30
2018-08-30T04:14:51.813Z,52.30
2018-08-30T04:17:20.243Z,52.20
2018-08-30T04:19:48.809Z,52.30
2018-08-30T04:22:17.245Z,52.20
2018-08-30T04:24:45.644Z,52.10
2018-08-30T04:27:14.077Z,52.10
2018-08-30T04:29:42.514Z,52.00
2018-08-30T04:32:10.965Z,52.00
2018-08-30T04:34:39.572Z,52.00
2018-08-30T04:37:08.635Z,52.00
2018-08-30T04:39:37.024Z,51.90
2018-08-30T04:42:05.696Z,52.00
2018-08-30T04:44:34.207Z,52.00
2018-08-30T04:47:02.645Z,52.00
2018-08-30T04:49:31.240Z,52.00
2018-08-30T04:52:00.082Z,52.00
2018-08-30T04:54:28.540Z,52.00
2018-08-30T04:56:56.946Z,51.90
2018-08-30T04:59:31.906Z,51.90
2018-08-30T05:02:00.352Z,51.90
2018-08-30T05:04:29.462Z,51.90
2018-08-30T05:06:57.968Z,51.90
2018-08-30T05:09:26.466Z,51.80
2018-08-30T05:11:55.048Z,51.80
2018-08-30T05:14:23.897Z,51.70
2018-08-30T05:16:52.656Z,51.70
2018-08-30T05:19:21.066Z,51.70
2018-08-30T05:21:49.721Z,51.70
2018-08-30T05:24:18.308Z,51.70
2018-08-30T05:26:46.759Z,51.70
2018-08-30T05:29:15.978Z,51.70
2018-08-30T05:31:45.303Z,51.70
2018-08-30T05:34:13.917Z,51.70
2018-08-30T05:36:42.314Z,51.70
2018-08-30T05:39:12.730Z,51.70
2018-08-30T05:41:41.624Z,51.70
2018-08-30T05:44:10.353Z,51.70
2018-08-30T05:46:38.867Z,51.60
2018-08-30T05:49:07.591Z,51.60
2018-08-30T05:51:36.703Z,51.60
2018-08-30T05:54:05.472Z,51.50
2018-08-30T05:56:34.144Z,51.50
2018-08-30T05:59:02.745Z,51.50
2018-08-30T06:01:31.229Z,51.50
2018-08-30T06:04:00.068Z,51.60
2018-08-30T06:06:28.585Z,51.50
2018-08-30T06:08:57.065Z,51.40
2018-08-30T06:11:25.955Z,51.40
2018-08-30T06:13:54.357Z,51.40
2018-08-30T06:16:22.790Z,51.30
2018-08-30T06:18:51.262Z,51.20
2018-08-30T06:21:19.913Z,51.10
2018-08-30T06:23:48.536Z,51.10
2018-08-30T06:26:17.927Z,51.20
2018-08-30T06:28:46.397Z,51.20
2018-08-30T06:31:14.803Z,51.30
2018-08-30T06:33:43.991Z,51.70
2018-08-30T06:36:12.613Z,52.30
2018-08-30T06:38:41.261Z,52.40
2018-08-30T06:41:09.820Z,53.00
2018-08-30T06:43:38.278Z,53.50
2018-08-30T06:46:06.879Z,53.60
2018-08-30T06:48:35.505Z,53.40
2018-08-30T06:51:03.865Z,53.00
2018-08-30T06:53:32.946Z,52.80
2018-08-30T06:56:01.581Z,52.80
2018-08-30T06:58:30.291Z,52.60
2018-08-30T07:00:58.873Z,52.80
2018-08-30T07:03:27.279Z,52.50
2018-08-30T07:05:56.299Z,52.30
2018-08-30T07:08:24.907Z,52.00
2018-08-30T07:10:53.333Z,51.90
2018-08-30T07:13:21.942Z,51.80
2018-08-30T07:15:50.650Z,51.70
2018-08-30T07:18:19.097Z,51.70
2018-08-30T07:20:48.049Z,51.40
2018-08-30T07:23:16.686Z,51.40
2018-08-30T07:25:45.160Z,51.40
2018-08-30T07:28:13.776Z,51.40
2018-08-30T07:30:42.281Z,51.20
2018-08-30T07:33:10.711Z,51.10
2018-08-30T07:35:39.384Z,51.10
2018-08-30T07:38:08.004Z,51.80
2018-08-30T07:40:36.449Z,51.10
2018-08-30T07:43:04.938Z,51.10
2018-08-30T07:45:33.345Z,50.90
2018-08-30T07:48:01.825Z,50.80
2018-08-30T07:50:30.766Z,50.80
2018-08-30T07:52:59.869Z,50.80
2018-08-30T07:55:28.832Z,50.70
2018-08-30T07:57:57.396Z,50.50
2018-08-30T08:00:26.444Z,50.30
2018-08-30T08:02:55.412Z,50.20
2018-08-30T08:05:23.963Z,50.20
2018-08-30T08:07:52.571Z,50.10
2018-08-30T08:10:20.989Z,50.00
2018-08-30T08:12:50.148Z,50.00
2018-08-30T08:15:18.816Z,49.90
2018-08-30T08:17:47.321Z,49.90
2018-08-30T08:20:15.932Z,49.90
2018-08-30T08:22:44.580Z,49.90
2018-08-30T08:25:13.064Z,49.80
2018-08-30T08:27:41.505Z,50.50
2018-08-30T08:30:09.924Z,49.70
2018-08-30T08:32:38.478Z,49.60
2018-08-30T08:35:07.441Z,49.60
2018-08-30T08:37:35.957Z,49.40
2018-08-30T08:40:04.679Z,49.40
2018-08-30T08:42:33.081Z,49.30
2018-08-30T08:45:01.700Z,49.80
2018-08-30T08:47:30.220Z,49.10
2018-08-30T08:49:59.185Z,48.90
2018-08-30T08:52:27.683Z,48.90
2018-08-30T08:54:56.115Z,48.90
2018-08-30T08:57:24.496Z,48.80
2018-08-30T08:59:53.591Z,48.90
2018-08-30T09:02:22.589Z,48.80
2018-08-30T09:04:50.984Z,48.90
2018-08-30T09:07:19.399Z,48.90
2018-08-30T09:09:47.920Z,48.40
2018-08-30T09:12:16.777Z,48.80
2018-08-30T09:14:45.297Z,49.00
2018-08-30T09:17:13.828Z,49.00
2018-08-30T09:19:42.276Z,48.90
2018-08-30T09:22:10.656Z,48.70
2018-08-30T09:24:39.089Z,48.80
2018-08-30T09:27:08.217Z,48.80
2018-08-30T09:29:36.804Z,48.80
2018-08-30T09:32:05.805Z,49.20
2018-08-30T09:34:34.218Z,48.60
2018-08-30T09:37:02.719Z,48.50
2018-08-30T09:39:31.191Z,48.60
2018-08-30T09:41:59.901Z,48.50
2018-08-30T09:44:28.820Z,48.40
2018-08-30T09:46:57.216Z,48.30
2018-08-30T09:49:25.857Z,48.20
2018-08-30T09:51:54.599Z,48.20
2018-08-30T09:54:23.012Z,48.20
2018-08-30T09:56:51.905Z,48.20
2018-08-30T09:59:20.438Z,48.30
2018-08-30T10:01:51.009Z,48.30
2018-08-30T10:04:20.191Z,48.20
2018-08-30T10:06:48.605Z,48.20
2018-08-30T10:09:17.032Z,48.10
2018-08-30T10:11:46.187Z,48.20
2018-08-30T10:14:15.513Z,48.20
2018-08-30T10:16:44.291Z,48.00
2018-08-30T10:19:13.312Z,47.90
2018-08-30T10:21:42.070Z,47.90
2018-08-30T10:24:10.477Z,47.90
2018-08-30T10:26:39.193Z,48.00
2018-08-30T10:29:08.236Z,48.00
2018-08-30T10:31:36.824Z,48.00
2018-08-30T10:34:05.180Z,48.00
2018-08-30T10:36:33.775Z,47.90
2018-08-30T10:39:02.651Z,47.80
2018-08-30T10:41:31.120Z,47.70
2018-08-30T10:43:59.603Z,47.70
2018-08-30T10:46:28.610Z,47.70
2018-08-30T10:48:57.108Z,47.70
2018-08-30T10:51:26.231Z,47.60
2018-08-30T10:53:54.935Z,47.50
2018-08-30T10:56:23.494Z,47.40
2018-08-30T10:58:52.099Z,47.50
2018-08-30T11:01:21.492Z,47.40
2018-08-30T11:03:49.905Z,47.40
2018-08-30T11:06:18.405Z,47.30
2018-08-30T11:08:46.949Z,47.20
2018-08-30T11:11:15.627Z,47.30
2018-08-30T11:13:44.221Z,47.20
2018-08-30T11:16:12.665Z,47.20
2018-08-30T11:18:41.280Z,47.10
2018-08-30T11:21:09.940Z,47.20
2018-08-30T11:23:38.984Z,47.30
2018-08-30T11:26:07.669Z,47.20
2018-08-30T11:28:36.126Z,47.30
2018-08-30T11:31:04.997Z,47.30
2018-08-30T11:33:33.393Z,47.10
2018-08-30T11:36:02.221Z,47.00
2018-08-30T11:38:30.614Z,47.00
2018-08-30T11:40:59.706Z,46.80
2018-08-30T11:43:28.318Z,46.70
2018-08-30T11:45:57.022Z,46.80
2018-08-30T11:48:25.528Z,46.80
2018-08-30T11:50:54.115Z,46.80
2018-08-30T11:53:22.585Z,46.80
2018-08-30T11:55:51.275Z,46.80
2018-08-30T11:58:19.856Z,46.70
2018-08-30T12:00:48.833Z,47.10
2018-08-30T12:03:19.531Z,46.90
2018-08-30T12:05:49.069Z,46.80
2018-08-30T12:08:17.613Z,46.60
2018-08-30T12:10:46.113Z,46.50
2018-08-30T12:13:14.455Z,46.50
2018-08-30T12:15:42.975Z,46.50
2018-08-30T12:18:11.655Z,46.50
2018-08-30T12:20:40.498Z,47.10
2018-08-30T12:23:09.500Z,46.40
2018-08-30T12:25:38.058Z,46.40
2018-08-30T12:28:06.567Z,46.50
2018-08-30T12:30:35.128Z,46.40
2018-08-30T12:33:03.851Z,46.40
2018-08-30T12:35:32.553Z,46.30
2018-08-30T12:38:01.052Z,46.20
2018-08-30T12:40:29.787Z,46.30
2018-08-30T12:42:58.381Z,46.20
2018-08-30T12:45:27.587Z,46.10
2018-08-30T12:47:56.217Z,45.90
2018-08-30T12:50:24.842Z,45.90
2018-08-30T12:52:53.441Z,46.20
2018-08-30T12:55:22.115Z,45.90
2018-08-30T12:57:50.482Z,45.90
2018-08-30T13:00:19.183Z,45.90
2018-08-30T13:02:47.617Z,45.70
2018-08-30T13:05:16.262Z,45.60
2018-08-30T13:07:44.866Z,45.60
2018-08-30T13:10:13.475Z,45.30
2018-08-30T13:12:42.134Z,45.20
2018-08-30T13:15:10.762Z,45.20
2018-08-30T13:17:39.095Z,45.10
2018-08-30T13:20:07.754Z,45.20
2018-08-30T13:22:36.672Z,45.30
2018-08-30T13:25:04.934Z,45.50
2018-08-30T13:27:33.256Z,45.30
2018-08-30T13:30:02.809Z,45.30
2018-08-30T13:32:31.178Z,45.20
2018-08-30T13:35:00.852Z,45.30
2018-08-30T13:37:28.999Z,45.50
2018-08-30T13:39:57.371Z,45.70
2018-08-30T13:42:26.022Z,45.70
2018-08-30T13:44:54.738Z,45.60
2018-08-30T13:47:23.894Z,45.30
2018-08-30T13:49:52.000Z,45.90
2018-08-30T13:52:20.799Z,45.10
2018-08-30T13:54:49.091Z,45.10
2018-08-30T13:57:18.360Z,45.00
2018-08-30T13:59:47.429Z,44.90
2018-08-30T14:02:15.791Z,44.80
2018-08-30T14:04:44.178Z,44.80
2018-08-30T14:07:12.804Z,45.00
2018-08-30T14:09:41.249Z,45.00
2018-08-30T14:12:09.930Z,44.70
2018-08-30T14:14:38.888Z,44.50
2018-08-30T14:17:07.629Z,44.60
2018-08-30T14:19:36.111Z,44.60
2018-08-30T14:22:04.615Z,44.50
2018-08-30T14:24:32.953Z,44.40
2018-08-30T14:27:01.583Z,44.30
2018-08-30T14:29:31.139Z,44.20
2018-08-30T14:31:59.879Z,44.20
2018-08-30T14:34:28.426Z,44.20
2018-08-30T14:36:57.297Z,44.40
2018-08-30T14:39:25.899Z,44.50
2018-08-30T14:41:55.017Z,44.40
2018-08-30T14:44:23.541Z,44.60
2018-08-30T14:46:52.228Z,44.70
2018-08-30T14:49:20.736Z,45.00
2018-08-30T14:51:49.213Z,45.00
2018-08-30T14:54:18.223Z,44.80
2018-08-30T14:56:46.635Z,44.80
2018-08-30T14:59:15.053Z,44.70
2018-08-30T15:01:43.421Z,44.70
2018-08-30T15:04:11.862Z,44.60
2018-08-30T15:06:40.275Z,44.50
2018-08-30T15:09:09.003Z,44.70
2018-08-30T15:11:37.575Z,44.80
2018-08-30T15:14:06.149Z,44.60
2018-08-30T15:16:34.506Z,44.50
2018-08-30T15:19:02.957Z,44.40
2018-08-30T15:21:31.500Z,44.40
2018-08-30T15:24:00.097Z,44.40
2018-08-30T15:26:28.637Z,44.40
2018-08-30T15:28:57.229Z,44.50
2018-08-30T15:31:25.956Z,45.20
2018-08-30T15:33:54.461Z,44.60
2018-08-30T15:36:22.962Z,45.40
2018-08-30T15:38:51.896Z,44.50
2018-08-30T15:41:22.435Z,44.60
2018-08-30T15:43:51.589Z,44.60
2018-08-30T15:46:20.246Z,44.80
2018-08-30T15:48:49.034Z,44.50
2018-08-30T15:51:17.681Z,44.20
2018-08-30T15:53:46.671Z,44.10
2018-08-30T15:56:15.338Z,44.20
2018-08-30T15:58:43.678Z,44.10
2018-08-30T16:01:12.142Z,44.10
2018-08-30T16:03:40.694Z,44.00
2018-08-30T16:06:09.104Z,44.60
2018-08-30T16:08:37.636Z,43.80
2018-08-30T16:11:06.284Z,43.80
2018-08-30T16:13:34.804Z,43.50
2018-08-30T16:16:03.710Z,43.40
2018-08-30T16:18:33.119Z,43.60
2018-08-30T16:21:01.824Z,43.90
2018-08-30T16:23:34.795Z,43.70
2018-08-30T16:26:03.813Z,43.80
2018-08-30T16:28:33.373Z,44.10
2018-08-30T16:31:02.820Z,44.10
2018-08-30T16:33:31.413Z,44.10
2018-08-30T16:36:00.034Z,43.90
2018-08-30T16:38:28.572Z,43.80
2018-08-30T16:40:57.084Z,43.80
2018-08-30T16:43:25.598Z,43.90
2018-08-30T16:45:54.223Z,43.80
2018-08-30T16:48:22.685Z,44.20
2018-08-30T16:50:51.942Z,44.20
2018-08-30T16:53:21.972Z,44.20
2018-08-30T16:55:50.931Z,44.20
2018-08-30T16:58:19.508Z,44.20
2018-08-30T17:00:48.218Z,44.30
2018-08-30T17:03:16.633Z,44.30
2018-08-30T17:05:45.390Z,44.30
2018-08-30T17:08:14.030Z,44.40
2018-08-30T17:10:42.762Z,44.80
2018-08-30T17:13:11.355Z,44.30
2018-08-30T17:15:40.453Z,44.10
2018-08-30T17:18:10.720Z,44.00
2018-08-30T17:20:41.216Z,44.20
2018-08-30T17:23:28.093Z,44.30
2018-08-30T17:25:56.955Z,44.60
2018-08-30T17:28:26.416Z,44.60
2018-08-30T17:30:55.780Z,44.50
2018-08-30T17:33:24.367Z,44.50
2018-08-30T17:35:53.890Z,44.30
2018-08-30T17:38:24.504Z,44.20
2018-08-30T17:40:54.226Z,44.30
2018-08-30T17:43:25.503Z,44.40
2018-08-30T17:45:55.556Z,44.30
2018-08-30T17:48:29.381Z,44.70
2018-08-30T17:50:59.146Z,44.80
2018-08-30T17:53:28.103Z,45.00
2018-08-30T17:55:57.967Z,45.30
2018-08-30T17:58:27.245Z,45.50
2018-08-30T18:00:56.163Z,45.60
2018-08-30T18:03:30.268Z,45.70
2018-08-30T18:06:00.019Z,45.70
2018-08-30T18:08:28.874Z,45.80
2018-08-30T18:10:57.563Z,45.70
2018-08-30T18:13:26.318Z,45.90
2018-08-30T18:15:55.058Z,45.30
2018-08-30T18:18:23.659Z,45.80
2018-08-30T18:20:52.249Z,46.00
2018-08-30T18:23:20.825Z,46.10
2018-08-30T18:25:49.377Z,46.10
2018-08-30T18:28:18.114Z,46.20
2018-08-30T18:30:47.071Z,46.20
2018-08-30T18:33:15.839Z,46.30
2018-08-30T18:35:44.774Z,46.40
2018-08-30T18:38:13.811Z,46.40
2018-08-30T18:40:42.632Z,46.40
2018-08-30T18:43:11.792Z,46.40
2018-08-30T18:45:40.474Z,46.50
2018-08-30T18:48:09.428Z,46.50
2018-08-30T18:50:37.997Z,46.50
2018-08-30T18:53:06.585Z,46.60
2018-08-30T18:55:35.125Z,46.80
2018-08-30T18:58:03.631Z,46.70
2018-08-30T19:00:32.453Z,46.80
2018-08-30T19:03:01.033Z,46.90
2018-08-30T19:05:30.574Z,46.90
2018-08-30T19:07:59.285Z,47.00
2018-08-30T19:10:27.752Z,47.00
2018-08-30T19:12:56.730Z,47.20
2018-08-30T19:15:31.393Z,47.20
2018-08-30T19:18:05.716Z,47.10
2018-08-30T19:20:34.716Z,47.20
2018-08-30T19:23:03.939Z,47.30
2018-08-30T19:25:33.080Z,47.30
2018-08-30T19:28:01.641Z,47.30
2018-08-30T19:30:31.929Z,47.30
2018-08-30T19:33:00.904Z,47.30
2018-08-30T19:35:36.205Z,47.30
2018-08-30T19:38:04.742Z,47.40
2018-08-30T19:40:38.624Z,47.50
2018-08-30T19:43:07.200Z,47.70
2018-08-30T19:45:36.065Z,47.60
2018-08-30T19:48:04.782Z,47.60
2018-08-30T19:50:33.344Z,47.60
2018-08-30T19:53:01.783Z,47.70
2018-08-30T19:55:30.572Z,47.80
2018-08-30T19:57:59.734Z,47.90
2018-08-30T20:00:28.427Z,47.90
2018-08-30T20:02:56.853Z,47.90
2018-08-30T20:05:25.698Z,48.00
2018-08-30T20:07:54.106Z,47.90
2018-08-30T20:10:22.637Z,48.10
2018-08-30T20:12:51.037Z,48.10
2018-08-30T20:15:20.204Z,48.00
2018-08-30T20:17:48.848Z,47.90
2018-08-30T20:20:17.483Z,48.10
2018-08-30T20:22:46.196Z,48.10
2018-08-30T20:25:15.346Z,48.20
2018-08-30T20:27:43.885Z,48.10
2018-08-30T20:30:12.299Z,48.10
2018-08-30T20:32:40.977Z,48.20
2018-08-30T20:35:09.521Z,48.20
2018-08-30T20:37:37.983Z,48.10
2018-08-30T20:40:06.444Z,48.30
2018-08-30T20:42:35.093Z,48.30
2018-08-30T20:45:03.661Z,48.30
2018-08-30T20:47:32.820Z,48.20
2018-08-30T20:50:01.988Z,48.30
2018-08-30T20:52:30.481Z,48.20
2018-08-30T20:54:58.944Z,48.20
2018-08-30T20:57:27.868Z,48.20
2018-08-30T20:59:56.570Z,48.30
2018-08-30T21:02:25.411Z,48.30
2018-08-30T21:04:53.989Z,48.30
2018-08-30T21:07:22.378Z,48.30
2018-08-30T21:09:50.813Z,48.30
2018-08-30T21:12:19.290Z,48.30
2018-08-30T21:14:48.216Z,48.30
2018-08-30T21:17:16.899Z,48.30
2018-08-30T21:19:45.338Z,48.20
2018-08-30T21:22:14.008Z,48.70
2018-08-30T21:24:42.445Z,48.20
2018-08-30T21:27:11.041Z,48.20
2018-08-30T21:29:39.625Z,48.30
2018-08-30T21:32:08.167Z,48.20
2018-08-30T21:34:36.796Z,48.30
2018-08-30T21:37:05.283Z,48.20
2018-08-30T21:39:33.700Z,48.30
2018-08-30T21:42:02.208Z,48.30
2018-08-30T21:44:30.721Z,48.20
2018-08-30T21:46:59.404Z,48.20
2018-08-30T21:49:28.007Z,48.20
2018-08-30T21:51:56.478Z,48.20
2018-08-30T21:54:25.087Z,48.10
2018-08-30T21:56:53.622Z,48.10
2018-08-30T21:59:22.852Z,48.10
2018-08-30T22:01:51.453Z,48.10
2018-08-30T22:04:19.878Z,48.20
2018-08-30T22:06:49.192Z,48.20
2018-08-30T22:09:17.717Z,48.20
2018-08-30T22:11:46.474Z,48.20
2018-08-30T22:14:15.557Z,48.20
2018-08-30T22:16:44.114Z,48.20
2018-08-30T22:19:12.565Z,48.30
2018-08-30T22:21:41.030Z,48.30
2018-08-30T22:24:09.652Z,48.30
2018-08-30T22:26:38.254Z,48.30
2018-08-30T22:29:06.682Z,48.30
2018-08-30T22:31:35.161Z,48.30
2018-08-30T22:34:03.923Z,48.50
2018-08-30T22:36:32.366Z,48.70
2018-08-30T22:39:00.996Z,49.50
2018-08-30T22:41:29.566Z,49.00
2018-08-30T22:43:58.171Z,49.10
2018-08-30T22:46:26.573Z,49.20
2018-08-30T22:48:55.178Z,49.20
2018-08-30T22:51:23.666Z,49.30
2018-08-30T22:53:52.303Z,49.40
2018-08-30T22:56:20.936Z,49.40
2018-08-30T22:58:49.843Z,49.40
2018-08-30T23:01:18.871Z,49.40
2018-08-30T23:03:47.371Z,49.60
2018-08-30T23:06:15.941Z,49.70
2018-08-30T23:08:44.439Z,49.60
2018-08-30T23:11:12.974Z,49.60
2018-08-30T23:13:41.483Z,49.70
2018-08-30T23:16:10.160Z,49.90
2018-08-30T23:18:38.728Z,49.80
2018-08-30T23:21:07.266Z,49.90
2018-08-30T23:23:35.888Z,49.80
2018-08-30T23:26:05.966Z,48.80
2018-08-30T23:28:35.033Z,47.50
2018-08-30T23:31:03.590Z,46.80
2018-08-30T23:33:32.405Z,46.20
2018-08-30T23:36:00.984Z,45.80
2018-08-30T23:38:30.249Z,45.70
2018-08-30T23:40:58.854Z,45.80
2018-08-30T23:43:27.652Z,45.70
2018-08-30T23:45:56.800Z,45.80
2018-08-30T23:48:25.270Z,46.00
2018-08-30T23:50:54.199Z,45.90
2018-08-30T23:53:22.913Z,46.00
2018-08-30T23:55:51.365Z,46.00
2018-08-30T23:58:31.065Z,46.10
